Nearby METAR Reports

 

KSJC - San Jose, California, USA
Distance from station: NE 9mi, 14km
Updated: Sun, 23-Apr-2017 9:53am PDT
Mostly cloudy
Mostly cloudy
 Wind from NW
Wind: NW 7 mph , 11 km/h
Temperature: 61°F , 16°C
Dew Point: 45°F , 7°C
Humidity: 55%
Barometer: 30.02 inHg , 1016.6 hPa
Clouds: Mostly cloudy
Visibility: 10 miles , 16 km
Cloud details: Few Clouds 2600 ft
Partly cloudy 16000 ft
Mostly cloudy 20000 ft
2017/04/23 16:53 KSJC 231653Z 31006KT 10SM FEW026 SCT160 BKN200 16/07 A3002 RMK AO2 SLP165 T01610067
KNUQ - Moffett Nas/Mtn, California, USA
Distance from station: N 9mi, 14km
Updated: Sun, 23-Apr-2017 9:56am PDT
Clear
Clear
 Wind from varies
Wind: varies 6 mph , 9 km/h, Gust: 16 mph , 26 km/h
Temperature: 63°F , 17°C
Dew Point: 45°F , 7°C
Humidity: 52%
Barometer: 30.02 inHg , 1016.6 hPa
Clouds: Clear
Visibility: 10 miles , 16 km
2017/04/23 16:56 KNUQ 231656Z VRB05G14KT 10SM CLR 17/07 A3002 RMK AO2 SLP169 T01670067
 
KPAO - Palo Alto, California, USA
Distance from station: NNW 14mi, 23km
Updated: Sun, 23-Apr-2017 9:47am PDT
Few Clouds
Few Clouds
 Wind from WNW
Wind: WNW 10 mph , 17 km/h
Temperature: 63°F , 17°C
Dew Point: 45°F , 7°C
Humidity: 52%
Barometer: 30.01 inHg , 1016.3 hPa
Clouds: Few Clouds
Visibility: 10 miles , 16 km
Cloud details: Few Clouds 3000 ft
Few Clouds 17000 ft
2017/04/23 16:47 KPAO 231647Z 29009KT 10SM FEW030 FEW170 17/07 A3001
KRHV - San Jose/Reid, California, USA
Distance from station: ENE 12mi, 19km
Updated: Sun, 23-Apr-2017 9:47am PDT
Partly cloudy
Partly cloudy
 Wind from NW
Wind: NW 8 mph , 13 km/h
Temperature: 61°F , 16°C
Dew Point: 46°F , 8°C
Humidity: 59%
Barometer: 30.04 inHg , 1017.3 hPa
Clouds: Partly cloudy
Visibility: 10 miles , 16 km
Cloud details: Partly cloudy 3500 ft
2017/04/23 16:47 KRHV 231647Z 31007KT 10SM SCT035 16/08 A3004
 
KOAK - Oakland, California, USA
Distance from station: NNW 31mi, 50km
Updated: Sun, 23-Apr-2017 9:53am PDT
Few Clouds
Few Clouds
 Wind from W
Wind: W 14 mph , 22 km/h
Temperature: 63°F , 17°C
Dew Point: 46°F , 8°C
Humidity: 56%
Barometer: 30.01 inHg , 1016.3 hPa
Clouds: Few Clouds
Visibility: 10 miles , 16 km
Cloud details: Few Clouds 1500 ft
Few Clouds 18000 ft
2017/04/23 16:53 KOAK 231653Z 27012KT 10SM FEW015 FEW180 17/08 A3001 RMK AO2 SLP164 T01670083
KSQL - San Carlos Airpo, California, USA
Distance from station: NW 21mi, 34km
Updated: Sun, 23-Apr-2017 10:47am PDT
Few Clouds
Few Clouds
 Wind from W
Wind: W 15 mph , 24 km/h, Gust: 21 mph , 33 km/h
Temperature: 63°F , 17°C
Dew Point: 45°F , 7°C
Humidity: 52%
Barometer: 30.03 inHg , 1016.9 hPa
Clouds: Few Clouds
Visibility: 10 miles , 16 km
Cloud details: Few Clouds 3000 ft
Few Clouds 18000 ft
2017/04/23 17:47 KSQL 231747Z 28013G18KT 10SM FEW030 FEW180 17/07 A3003
 
KSFO - San Francisco, California, USA
Distance from station: NW 30mi, 49km
Updated: Sun, 23-Apr-2017 9:56am PDT
Few Clouds
Few Clouds
 Wind from W
Wind: W 15 mph , 24 km/h
Temperature: 61°F , 16°C
Dew Point: 46°F , 8°C
Humidity: 59%
Barometer: 30.02 inHg , 1016.6 hPa
Clouds: Few Clouds
Visibility: 10 miles , 16 km
Cloud details: Few Clouds 2200 ft
Few Clouds 8000 ft
2017/04/23 16:56 KSFO 231656Z 28013KT 10SM FEW022 FEW080 16/08 A3002 RMK AO2 SLP166 T01560078
KE16 - San Martin, California, USA
Distance from station: ESE 27mi, 43km
Updated: Sun, 23-Apr-2017 10:35am PDT
Clear
Clear
 Wind from NW
Wind: NW 15 mph , 24 km/h, Gust: 18 mph , 30 km/h
Temperature: 61°F , 16°C
Dew Point: 46°F , 8°C
Humidity: 59%
Barometer: 30.04 inHg , 1017.3 hPa
Clouds: Clear
Visibility: 10 miles , 16 km
2017/04/23 17:35 KE16 231735Z AUTO 31013G16KT 10SM CLR 16/08 A3004 RMK AO2
 
KWVI - Watsonville, California, USA
Distance from station: SSE 27mi, 44km
Updated: Sun, 23-Apr-2017 9:53am PDT
Clear
Clear
 Wind from calm
Wind: Calm
Temperature: 59°F , 15°C
Dew Point: 50°F , 10°C
Humidity: 72%
Barometer: 30.03 inHg , 1016.9 hPa
Clouds: Clear
Visibility: 8 miles , 13 km
2017/04/23 16:53 KWVI 231653Z AUTO 00000KT 8SM CLR 15/10 A3003 RMK AO2 SLP168 T01500100 $
KHAF - Half Moon Bay, California, USA
Distance from station: WNW 31mi, 50km
Updated: Sun, 23-Apr-2017 10:35am PDT
Clear
Clear
 Wind from NW
Wind: NW 14 mph , 22 km/h, Gust: 20 mph , 31 km/h
Temperature: 57°F , 14°C
Dew Point: 50°F , 10°C
Humidity: 77%
Barometer: 30.05 inHg , 1017.6 hPa
Clouds: Clear
Visibility: 7 miles , 11 km
2017/04/23 17:35 KHAF 231735Z AUTO 31012G17KT 7SM CLR 14/10 A3005 RMK AO2
 
KHWD - Hayward, California, USA
Distance from station: N 28mi, 44km
Updated: Sun, 23-Apr-2017 9:54am PDT
Few Clouds
Few Clouds
 Wind from W
Wind: W 12 mph , 19 km/h
Temperature: 61°F , 16°C
Dew Point: 45°F , 7°C
Humidity: 55%
Barometer: 30.01 inHg , 1016.3 hPa
Clouds: Few Clouds
Visibility: 10 miles , 16 km
Cloud details: Few Clouds 4000 ft
2017/04/23 16:54 KHWD 231654Z 27010KT 10SM FEW040 16/07 A3001 RMK AO2 SLP172 T01610067
KLVK - Livermore, California, USA
Distance from station: NNE 31mi, 51km
Updated: Sun, 23-Apr-2017 9:53am PDT
Clear
Clear
 Wind from W
Wind: W 15 mph , 24 km/h
Temperature: 61°F , 16°C
Dew Point: 45°F , 7°C
Humidity: 55%
Barometer: 29.99 inHg , 1015.6 hPa
Clouds: Clear
Visibility: 10 miles , 16 km
2017/04/23 16:53 KLVK 231653Z 26013KT 10SM CLR 16/07 A2999 RMK AO2 SLP155 T01560072